Time;durP1;ratioP1;P1;durP2;ratioP2;P2;SDS_P1;SDS_P2;PMS_P1;PMS_P2;Temp;Humidity;BMP_temperature;BMP_pressure;BME280_temperature;BME280_humidity;BME280_pressure;Samples;Min_cycle;Max_cycle;Signal;HPM_P1;HPM_P2
2022/07/12 06:17:41;;;;;;;8.02;4.03;;;;;;;16.87;67.36;97329.19;2108463;27;20583;-65
2022/07/12 06:18:42;;;;;;;5.07;2.90;;;;;;;16.98;67.34;97334.72;2100714;28;20222;-65
2022/07/12 06:19:44;;;;;;;12.75;3.72;;;;;;;17.14;66.82;97332.84;2102121;28;20199;-66
2022/07/12 06:20:45;;;;;;;4.20;2.70;;;;;;;16.92;66.79;97337.72;2100379;28;20218;-65
2022/07/12 06:21:47;;;;;;;5.00;2.90;;;;;;;16.87;67.22;97350.31;2098131;28;20530;-65
2022/07/12 06:22:49;;;;;;;5.30;2.65;;;;;;;17.18;66.01;97345.84;2103306;28;20657;-66
2022/07/12 06:23:52;;;;;;;3.95;2.42;;;;;;;17.44;65.08;97339.84;2102787;28;20274;-66
2022/07/12 06:24:53;;;;;;;8.05;2.53;;;;;;;17.53;64.76;97337.59;2102604;28;20705;-65
2022/07/12 06:48:56;;;;;;;2.40;0.90;;;;;;;18.99;55.88;97343.19;2085348;28;20558;-63
2022/07/12 06:49:58;;;;;;;2.47;0.88;;;;;;;18.97;55.73;97346.91;2078574;28;20670;-63
2022/07/12 06:50:59;;;;;;;4.68;0.93;;;;;;;18.98;55.54;97338.88;2078462;28;20682;-63
2022/07/12 06:52:01;;;;;;;6.68;0.80;;;;;;;19.28;55.41;97348.31;2074508;28;20712;-63
2022/07/12 06:53:02;;;;;;;2.33;0.73;;;;;;;19.39;54.79;97340.47;2070418;28;20208;-65
2022/07/12 06:54:04;;;;;;;2.10;0.80;;;;;;;19.61;54.55;97343.44;2070235;28;20198;-65
2022/07/12 06:55:07;;;;;;;2.00;0.98;;;;;;;19.34;54.57;97342.59;2070349;28;20657;-65
2022/07/12 06:56:08;;;;;;;3.22;0.80;;;;;;;19.24;54.33;97344.19;2070255;28;20220;-65
2022/07/12 06:57:09;;;;;;;3.85;0.90;;;;;;;19.39;54.61;97342.28;2069068;28;20637;-65
2022/07/12 06:58:11;;;;;;;2.13;0.80;;;;;;;19.44;53.19;97348.09;2070373;28;20220;-65
2022/07/12 07:20:58;;;;;;;1.65;0.60;;;;;;;20.72;46.99;97380.53;2104289;27;20549;-66
2022/07/12 07:21:59;;;;;;;1.50;0.70;;;;;;;20.81;47.09;97377.22;2097139;28;20242;-66
2022/07/12 07:23:01;;;;;;;2.53;0.80;;;;;;;20.99;47.54;97382.94;2083705;28;20201;-66
2022/07/12 07:24:03;;;;;;;1.30;0.63;;;;;;;21.04;47.57;97380.78;2090842;28;20196;-66
2022/07/12 07:25:06;;;;;;;1.65;0.82;;;;;;;21.07;46.67;97379.72;2089208;28;20207;-66
2022/07/12 07:26:07;;;;;;;1.83;0.70;;;;;;;19.63;49.10;97375.94;2089848;28;20910;-66
2022/07/12 07:27:09;;;;;;;3.47;1.10;;;;;;;19.60;50.59;97371.69;2088355;28;20223;-66
2022/07/12 07:28:11;;;;;;;3.42;0.80;;;;;;;19.87;50.72;97371.59;2088835;28;20201;-66
2022/07/12 07:50:39;;;;;;;2.53;0.60;;;;;;;22.46;44.50;97382.22;2094189;27;20577;-64
2022/07/12 07:51:40;;;;;;;1.35;0.60;;;;;;;22.42;44.50;97375.44;2092796;28;20196;-65
2022/07/12 07:52:42;;;;;;;2.35;0.75;;;;;;;22.63;43.54;97374.66;2078453;28;20197;-65
2022/07/12 07:53:43;;;;;;;1.50;0.65;;;;;;;22.88;43.75;97378.78;2078262;28;20228;-65
2022/07/12 07:54:45;;;;;;;2.65;0.68;;;;;;;23.18;43.23;97385.19;2078514;28;20204;-65
2022/07/12 07:55:46;;;;;;;3.38;0.73;;;;;;;23.25;42.84;97389.03;2078169;28;20220;-65
2022/07/12 07:56:48;;;;;;;1.45;0.60;;;;;;;23.07;42.15;97380.75;2076156;28;20193;-65
2022/07/12 07:57:49;;;;;;;1.30;0.60;;;;;;;23.25;42.97;97383.72;2070528;28;20193;-65
2022/07/12 07:58:52;;;;;;;1.33;0.73;;;;;;;23.51;42.61;97387.78;2070253;28;20275;-65
2022/07/12 07:59:53;;;;;;;1.40;0.70;;;;;;;23.64;42.46;97386.59;2069702;28;20197;-65
2022/07/12 08:00:55;;;;;;;3.28;0.80;;;;;;;23.74;42.37;97389.28;2069780;28;20229;-65
2022/07/12 08:01:57;;;;;;;1.50;0.80;;;;;;;23.96;41.96;97380.31;2069772;28;20239;-65
2022/07/12 08:02:59;;;;;;;1.70;0.70;;;;;;;23.81;41.57;97370.97;2069545;28;20225;-65
2022/07/12 08:04:00;;;;;;;1.40;0.70;;;;;;;23.95;41.41;97383.94;2070387;28;20675;-65
2022/07/12 08:05:03;;;;;;;5.10;0.70;;;;;;;23.13;42.29;97377.59;2070334;28;20198;-65
2022/07/12 08:06:04;;;;;;;2.95;0.90;;;;;;;23.35;42.17;97375.78;2070369;28;20198;-65
2022/07/12 08:07:06;;;;;;;1.45;0.70;;;;;;;23.62;41.91;97353.91;2068088;28;20732;-65
2022/07/12 08:08:08;;;;;;;1.30;0.60;;;;;;;23.70;42.23;97379.06;2070384;28;20664;-65
2022/07/12 08:09:10;;;;;;;3.45;1.00;;;;;;;23.81;42.31;97376.28;2069441;28;20260;-65
2022/07/12 08:10:14;;;;;;;1.45;0.70;;;;;;;23.27;43.27;97379.13;2069620;28;20546;-65
2022/07/12 08:11:15;;;;;;;1.27;0.70;;;;;;;23.53;42.70;97373.34;2069657;28;20201;-65
2022/07/12 08:12:17;;;;;;;2.10;1.00;;;;;;;23.63;42.38;97373.41;2068922;28;20221;-65
2022/07/12 08:34:55;;;;;;;2.40;0.80;;;;;;;23.68;41.90;97367.66;2084334;28;20561;-65
2022/07/12 08:35:57;;;;;;;2.38;0.70;;;;;;;23.64;42.22;97369.75;2077980;28;20204;-65
2022/07/12 08:36:59;;;;;;;7.75;0.90;;;;;;;23.66;41.53;97372.31;2074064;28;20225;-65
2022/07/12 08:38:00;;;;;;;2.97;1.13;;;;;;;23.56;42.16;97373.09;2070630;28;20205;-65
2022/07/12 08:39:02;;;;;;;8.85;1.00;;;;;;;23.55;42.68;97375.88;2070444;28;20202;-66
2022/07/12 08:40:05;;;;;;;4.90;1.08;;;;;;;23.27;42.89;97376.44;2070571;28;20194;-65
2022/07/12 08:41:07;;;;;;;2.00;0.80;;;;;;;23.38;42.10;97372.84;2070430;28;20615;-65
2022/07/12 08:42:08;;;;;;;2.38;0.85;;;;;;;23.83;41.50;97379.66;2069970;28;20217;-65
2022/07/12 08:43:10;;;;;;;1.70;0.70;;;;;;;24.04;40.93;97381.47;2070616;28;20205;-64
2022/07/12 08:44:11;;;;;;;1.40;0.80;;;;;;;24.10;40.41;97379.09;2070498;28;20812;-65
2022/07/12 08:45:13;;;;;;;2.33;0.82;;;;;;;23.28;42.00;97383.44;2069801;28;20556;-65
2022/07/12 08:46:15;;;;;;;3.55;1.00;;;;;;;23.97;41.29;97383.81;2070484;28;20582;-65
2022/07/12 08:47:16;;;;;;;5.43;1.00;;;;;;;24.42;40.64;97379.88;2070030;28;20233;-65
2022/07/12 08:48:18;;;;;;;2.65;0.90;;;;;;;24.73;39.39;97382.47;2069593;28;20194;-65
2022/07/12 08:49:19;;;;;;;1.45;0.70;;;;;;;24.53;40.17;97382.44;2070403;28;20213;-65
2022/07/12 08:50:24;;;;;;;3.08;0.90;;;;;;;24.85;39.53;97384.03;2070444;28;20202;-65
2022/07/12 08:51:26;;;;;;;1.77;0.88;;;;;;;24.93;38.99;97392.16;2069245;28;20205;-66
2022/07/12 08:52:28;;;;;;;1.40;0.70;;;;;;;24.64;39.70;97396.63;2069896;28;20218;-66
2022/07/12 08:53:30;;;;;;;1.90;0.70;;;;;;;24.97;39.67;97397.25;2077711;28;20209;-65
2022/07/12 08:54:39;;;;;;;2.00;0.65;;;;;;;24.88;38.57;97393.56;2076848;28;20213;-65
2022/07/12 08:55:40;;;;;;;1.77;0.80;;;;;;;23.10;41.71;97396.47;2070429;28;20657;-65
2022/07/12 08:56:44;;;;;;;1.50;0.70;;;;;;;23.22;41.49;97394.59;2069034;28;20221;-65
2022/07/12 09:16:35;;;;;;;1.80;0.90;;;;;;;25.37;37.78;97378.38;2084091;28;20914;-65
2022/07/12 09:17:37;;;;;;;1.60;0.88;;;;;;;24.69;38.61;97397.09;2081109;28;20207;-65
2022/07/12 09:18:38;;;;;;;3.75;1.00;;;;;;;23.81;39.89;97394.97;2080080;28;20197;-65
2022/07/12 09:19:55;;;;;;;2.85;1.20;;;;;;;23.95;39.26;97385.78;2073705;28;20223;-65
2022/07/12 09:20:57;;;;;;;1.33;0.70;;;;;;;23.55;40.28;97387.38;2072157;28;20201;-65
2022/07/12 09:21:58;;;;;;;2.65;0.90;;;;;;;23.52;40.36;97382.31;2073565;28;20289;-65
2022/07/12 09:23:05;;;;;;;1.83;1.00;;;;;;;23.30;41.31;97384.16;2075003;28;20194;-65
2022/07/12 09:24:10;;;;;;;1.55;0.88;;;;;;;23.82;40.80;97383.31;2071175;28;20202;-65
2022/07/12 09:25:18;;;;;;;1.60;1.00;;;;;;;23.89;40.30;97388.97;2073798;28;20212;-65
2022/07/12 09:26:20;;;;;;;1.77;0.93;;;;;;;24.33;39.32;97386.03;2069654;28;20820;-65
2022/07/12 09:27:25;;;;;;;10.25;1.48;;;;;;;24.26;38.85;97386.59;2069480;28;20221;-65
2022/07/12 09:28:27;;;;;;;4.53;0.90;;;;;;;24.54;38.43;97391.25;2072735;28;20715;-65
2022/07/12 09:29:28;;;;;;;3.05;1.73;;;;;;;24.41;37.72;97383.53;2073983;28;20193;-65
2022/07/12 09:30:31;;;;;;;4.18;1.27;;;;;;;24.27;38.85;97379.41;2074234;28;20203;-65
2022/07/12 09:36:24;;;;;;;2.35;0.70;;;;;;;25.75;36.61;97383.75;2069512;28;20233;-65
2022/07/12 09:57:03;;;;;;;1.85;0.70;;;;;;;24.57;38.84;97394.50;2083814;28;20563;-63
2022/07/12 09:58:07;;;;;;;4.68;0.80;;;;;;;25.04;37.52;97396.53;2073420;28;20201;-64
2022/07/12 09:59:13;;;;;;;1.58;0.77;;;;;;;25.29;37.10;97388.06;2075127;28;20193;-65
2022/07/12 10:00:15;;;;;;;1.38;0.70;;;;;;;25.04;38.00;97391.19;2075037;28;20204;-64
2022/07/12 10:01:17;;;;;;;1.40;0.60;;;;;;;25.42;37.83;97394.81;2075311;28;20645;-64
2022/07/12 10:02:21;;;;;;;1.40;0.60;;;;;;;25.81;36.64;97393.84;2075371;28;20260;-67
2022/07/12 10:03:24;;;;;;;5.35;0.70;;;;;;;26.17;36.56;97393.16;2075253;28;20201;-67
2022/07/12 10:04:30;;;;;;;3.08;0.77;;;;;;;26.53;35.82;97395.94;2073567;28;20209;-66
2022/07/12 10:05:34;;;;;;;1.20;0.60;;;;;;;26.59;35.86;97400.69;2072185;28;20565;-67
2022/07/12 10:06:35;;;;;;;1.10;0.52;;;;;;;25.67;35.86;97397.00;2073998;28;20642;-67
2022/07/12 10:07:38;;;;;;;1.40;0.60;;;;;;;25.38;36.98;97388.09;2072312;28;20202;-65
2022/07/12 10:08:40;;;;;;;1.30;0.60;;;;;;;25.56;36.84;97393.53;2072503;28;20197;-65
2022/07/12 10:09:44;;;;;;;1.50;0.70;;;;;;;26.01;37.28;97397.28;2073460;28;20201;-65
2022/07/12 10:10:46;;;;;;;3.85;0.68;;;;;;;26.21;36.30;97400.75;2077014;28;20663;-65
2022/07/12 10:11:49;;;;;;;1.40;0.70;;;;;;;26.47;35.39;97396.53;2076533;28;20205;-64
2022/07/12 10:13:01;;;;;;;3.15;0.60;;;;;;;26.18;35.76;97403.75;2072725;28;20688;-64
2022/07/12 10:14:03;;;;;;;10.35;0.80;;;;;;;26.32;35.81;97402.41;2074746;28;20634;-64
2022/07/12 10:15:09;;;;;;;1.20;0.70;;;;;;;26.78;35.44;97404.22;2075988;28;20193;-64
2022/07/12 10:16:14;;;;;;;1.30;0.70;;;;;;;26.11;35.75;97408.00;2074424;28;20198;-65
2022/07/12 10:17:24;;;;;;;1.75;0.70;;;;;;;26.04;36.00;97401.50;2072070;28;20252;-65
2022/07/12 10:18:26;;;;;;;1.38;0.57;;;;;;;26.13;35.99;97402.50;2073950;28;20206;-64
2022/07/12 10:19:31;;;;;;;1.63;0.73;;;;;;;26.65;35.73;97404.56;2074200;28;20205;-64
2022/07/12 10:41:19;;;;;;;2.67;0.80;;;;;;;26.64;34.48;97392.19;2083957;28;20548;-64
2022/07/12 10:42:21;;;;;;;1.50;0.70;;;;;;;27.01;34.55;97373.31;2078816;28;20227;-64
2022/07/12 10:44:47;;;;;;;5.13;0.70;;;;;;;25.19;37.57;97390.75;2070362;28;20905;-65
2022/07/12 10:45:49;;;;;;;5.00;0.77;;;;;;;25.90;36.33;97387.66;2077519;28;20429;-65
2022/07/12 10:47:02;;;;;;;5.90;0.70;;;;;;;25.30;36.61;97387.09;2069914;28;20197;-65
2022/07/12 10:48:09;;;;;;;1.77;0.65;;;;;;;26.24;36.07;97386.22;2071561;28;20596;-64
2022/07/12 10:49:30;;;;;;;1.55;0.60;;;;;;;27.15;34.65;97388.00;2073546;28;20189;-64
2022/07/12 10:50:44;;;;;;;1.20;0.60;;;;;;;27.71;33.35;97390.41;2072002;28;20209;-65
2022/07/12 10:52:11;;;;;;;2.85;0.60;;;;;;;26.80;33.56;97395.03;2071036;28;20200;-65
2022/07/12 10:53:18;;;;;;;1.25;0.68;;;;;;;26.30;34.05;97387.47;2070957;28;20194;-65
2022/07/12 10:54:23;;;;;;;1.42;0.73;;;;;;;25.21;35.54;97381.59;2075418;28;20201;-65
2022/07/12 10:55:25;;;;;;;1.92;0.85;;;;;;;25.84;34.93;97382.00;2074582;28;20196;-65
2022/07/12 10:56:27;;;;;;;1.45;0.60;;;;;;;26.30;34.31;97379.44;2071019;28;20710;-65
2022/07/12 10:57:43;;;;;;;1.55;0.70;;;;;;;26.57;33.58;97383.91;2073582;28;20735;-65
2022/07/12 10:58:44;;;;;;;1.77;0.70;;;;;;;26.79;34.08;97380.00;2072364;28;20585;-65
2022/07/12 10:59:52;;;;;;;1.33;0.68;;;;;;;27.04;33.99;97386.38;2073873;28;20647;-64
2022/07/12 11:00:55;;;;;;;2.25;0.60;;;;;;;27.55;33.46;97388.47;2073545;28;20292;-65
2022/07/12 11:22:38;;;;;;;1.35;0.65;;;;;;;29.21;29.56;97385.34;2083996;28;20580;-67
2022/07/12 11:23:43;;;;;;;1.20;0.60;;;;;;;28.27;30.28;97382.81;2078709;28;20201;-66
2022/07/12 11:24:44;;;;;;;1.30;0.70;;;;;;;28.14;30.50;97385.97;2086073;28;20193;-67
2022/07/12 11:25:46;;;;;;;3.53;0.80;;;;;;;28.71;30.89;97383.63;2086320;28;20674;-67
2022/07/12 11:26:48;;;;;;;1.50;0.70;;;;;;;27.84;32.18;97380.06;2076532;28;20536;-67
2022/07/12 11:27:49;;;;;;;2.40;0.70;;;;;;;27.94;32.47;97377.28;2070684;28;20881;-67
2022/07/12 11:28:57;;;;;;;1.00;0.50;;;;;;;28.60;31.24;97372.16;2070436;28;20229;-67
2022/07/12 11:30:00;;;;;;;1.60;0.80;;;;;;;28.84;31.02;97382.13;2070698;28;20256;-67
2022/07/12 11:31:05;;;;;;;2.28;0.60;;;;;;;28.44;31.08;97383.72;2070568;28;20213;-67
2022/07/12 11:32:07;;;;;;;2.38;0.70;;;;;;;28.39;31.40;97383.38;2070124;28;20306;-67
2022/07/12 11:33:12;;;;;;;1.10;0.60;;;;;;;28.97;30.71;97384.31;2070814;28;21140;-67
2022/07/12 11:34:24;;;;;;;1.40;0.65;;;;;;;28.96;29.96;97371.06;2070622;28;20623;-68
2022/07/12 11:35:26;;;;;;;1.25;0.60;;;;;;;27.85;31.56;97380.94;2070032;28;20205;-67
2022/07/12 11:36:29;;;;;;;5.40;1.00;;;;;;;27.38;31.93;97384.81;2070303;28;20202;-67
2022/07/12 11:37:31;;;;;;;3.85;0.60;;;;;;;27.18;32.47;97376.94;2070062;28;20236;-67
2022/07/12 11:38:36;;;;;;;3.08;0.70;;;;;;;28.12;31.67;97382.59;2070505;28;20181;-68
2022/07/12 11:39:43;;;;;;;1.73;0.70;;;;;;;28.93;30.42;97385.66;2069861;28;20205;-67
2022/07/12 11:40:54;;;;;;;1.58;0.60;;;;;;;28.45;29.91;97385.38;2070445;28;20198;-67
2022/07/12 11:41:57;;;;;;;3.00;0.60;;;;;;;28.00;30.44;97384.69;2068382;28;20221;-67
2022/07/12 11:43:00;;;;;;;1.95;0.70;;;;;;;27.57;31.58;97374.91;2070475;28;20201;-67
2022/07/12 12:04:29;;;;;;;1.52;0.60;;;;;;;29.26;29.45;97374.09;2086035;28;20568;-66
2022/07/12 12:05:33;;;;;;;1.80;0.70;;;;;;;29.17;30.16;97374.06;2083710;28;20207;-66
2022/07/12 12:06:34;;;;;;;1.70;0.60;;;;;;;27.88;31.44;97377.09;2081251;28;20201;-66
2022/07/12 12:07:36;;;;;;;12.32;4.70;;;;;;;27.92;31.02;97373.09;2070965;28;20556;-66
2022/07/12 12:08:37;;;;;;;2.17;0.88;;;;;;;27.34;31.84;97378.09;2070973;28;20216;-66
2022/07/12 12:09:57;;;;;;;1.73;0.70;;;;;;;27.67;31.42;97376.47;2075007;28;20767;-66
2022/07/12 12:10:59;;;;;;;4.03;0.70;;;;;;;28.04;30.23;97363.78;2071136;28;20202;-66
2022/07/12 12:12:01;;;;;;;8.25;0.73;;;;;;;27.66;30.57;97368.59;2071727;28;20229;-66
2022/07/12 12:13:03;;;;;;;2.30;0.60;;;;;;;28.11;30.89;97367.50;2083057;28;20201;-66
2022/07/12 12:14:05;;;;;;;1.67;0.85;;;;;;;28.60;30.31;97360.59;2083670;28;20662;-66
2022/07/12 12:15:09;;;;;;;2.35;0.68;;;;;;;29.51;28.62;97356.09;2072216;28;20206;-66
2022/07/12 12:16:11;;;;;;;1.75;0.60;;;;;;;30.01;27.41;97359.50;2066247;28;20610;-66
2022/07/12 12:17:13;;;;;;;2.17;0.70;;;;;;;30.05;27.20;97352.75;2066247;28;20693;-68
2022/07/12 12:18:14;;;;;;;1.95;0.85;;;;;;;29.96;27.34;97362.69;2072705;28;20198;-66
2022/07/12 12:19:16;;;;;;;3.58;0.60;;;;;;;30.41;27.30;97362.16;2075192;28;20564;-66
2022/07/12 12:20:26;;;;;;;2.35;0.70;;;;;;;28.90;28.14;97352.91;2074232;28;20256;-66
2022/07/12 12:21:28;;;;;;;3.07;0.63;;;;;;;28.70;29.37;97353.25;2074276;28;20208;-66
2022/07/12 12:22:36;;;;;;;1.33;0.60;;;;;;;27.67;30.91;97354.19;2073399;28;20466;-66
2022/07/12 12:23:40;;;;;;;1.33;0.55;;;;;;;28.23;31.07;97349.25;2074894;28;20201;-66
2022/07/12 12:24:57;;;;;;;1.60;0.65;;;;;;;29.05;29.79;97350.41;2072991;28;20202;-66
2022/07/12 12:45:54;;;;;;;5.25;3.40;;;;;;;29.86;29.48;97353.97;2092274;28;20569;-66
2022/07/12 12:48:25;;;;;;;10.52;6.70;;;;;;;31.01;27.91;97349.81;2082530;28;20197;-66
2022/07/12 12:49:50;;;;;;;2.35;1.08;;;;;;;30.93;27.80;97353.41;2081713;28;20711;-66
2022/07/12 12:51:09;;;;;;;8.07;1.05;;;;;;;31.17;27.39;97353.41;2083047;28;20655;-66
2022/07/12 12:52:10;;;;;;;2.05;0.77;;;;;;;31.19;27.03;97354.91;2081271;28;20698;-66
2022/07/12 12:53:19;;;;;;;1.30;0.70;;;;;;;31.38;26.34;97348.16;2082522;28;20196;-66
2022/07/12 12:54:34;;;;;;;1.20;0.60;;;;;;;31.02;26.96;97338.03;2083496;28;20427;-66
2022/07/12 12:55:36;;;;;;;1.97;0.70;;;;;;;30.91;26.94;97333.06;2081588;28;20425;-66
2022/07/12 12:56:41;;;;;;;1.83;0.67;;;;;;;30.11;28.07;97337.75;2082814;28;20969;-66
2022/07/12 12:57:43;;;;;;;1.07;0.53;;;;;;;30.78;27.50;97341.75;2082116;28;20929;-65
2022/07/12 12:58:44;;;;;;;2.90;0.60;;;;;;;28.57;29.11;97334.91;2081692;28;20433;-66
2022/07/12 12:59:46;;;;;;;1.10;0.60;;;;;;;28.97;28.80;97335.94;2083640;28;20426;-66
2022/07/12 13:00:50;;;;;;;4.40;0.90;;;;;;;30.10;27.54;97338.75;2083224;28;20948;-66
2022/07/12 13:01:52;;;;;;;1.30;0.50;;;;;;;30.07;28.12;97337.25;2083593;28;20422;-66
2022/07/12 13:02:57;;;;;;;1.40;0.70;;;;;;;30.45;27.97;97339.25;2082545;28;20480;-66
2022/07/12 13:03:59;;;;;;;1.17;0.60;;;;;;;30.62;26.94;97343.53;2081212;28;20947;-66
2022/07/12 13:05:01;;;;;;;23.87;10.80;;;;;;;30.26;27.25;97341.38;2082781;28;20901;-66
2022/07/12 13:06:04;;;;;;;8.57;1.40;;;;;;;29.17;29.38;97344.50;2083037;28;20437;-66
2022/07/12 13:07:06;;;;;;;9.57;3.40;;;;;;;30.64;27.87;97343.38;2083759;28;21039;-66
2022/07/12 13:08:15;;;;;;;31.07;21.47;;;;;;;31.51;26.43;97352.09;2080103;28;20425;-67
2022/07/12 13:09:16;;;;;;;3.40;1.77;;;;;;;31.19;26.45;97348.69;2082841;28;20427;-66
2022/07/12 13:30:35;;;;;;;1.20;0.60;;;;;;;30.26;27.55;97338.69;2104313;27;20569;-66
2022/07/12 13:31:37;;;;;;;3.77;0.50;;;;;;;30.76;27.29;97333.00;2099234;28;20229;-66
2022/07/12 13:32:39;;;;;;;7.90;0.90;;;;;;;31.09;27.19;97338.16;2089301;28;20433;-66
2022/07/12 13:33:41;;;;;;;4.80;0.70;;;;;;;31.49;26.42;97335.22;2090340;28;20519;-66
2022/07/12 13:34:42;;;;;;;16.93;0.97;;;;;;;30.61;27.71;97338.31;2092695;28;20785;-66
2022/07/12 13:35:44;;;;;;;10.40;1.47;;;;;;;30.69;27.42;97338.28;2085857;28;20445;-67
2022/07/12 13:36:46;;;;;;;1.40;0.70;;;;;;;31.08;27.12;97337.31;2091787;28;20435;-66
2022/07/12 13:37:47;;;;;;;1.60;0.60;;;;;;;31.47;26.61;97340.00;2092420;28;20468;-66
2022/07/12 13:40:10;;;;;;;4.30;0.60;;;;;;;32.07;26.49;97341.69;2092969;28;20426;-66
2022/07/12 13:40:17;;;;;;;1.20;0.60;;;;;;;32.58;26.18;97340.00;2088640;28;20427;-66
2022/07/12 13:41:19;;;;;;;4.43;0.80;;;;;;;32.51;25.62;97339.09;2090456;28;20516;-66
2022/07/12 13:42:20;;;;;;;1.10;0.50;;;;;;;32.47;25.12;97341.34;2091634;28;20457;-66
2022/07/12 13:43:22;;;;;;;1.20;0.60;;;;;;;32.57;25.35;97335.63;2094677;28;20420;-66
2022/07/12 13:44:23;;;;;;;9.03;0.50;;;;;;;32.37;24.66;97330.84;2089291;28;20435;-66
2022/07/12 13:45:25;;;;;;;1.40;0.70;;;;;;;30.42;26.85;97339.59;2089674;28;20721;-66
2022/07/12 13:46:26;;;;;;;7.13;3.60;;;;;;;30.89;27.35;97341.34;2093098;28;20478;-65
2022/07/12 13:47:28;;;;;;;29.37;14.93;;;;;;;31.40;26.44;97337.19;2094196;28;20460;-66
2022/07/12 13:48:30;;;;;;;93.97;50.50;;;;;;;32.09;25.83;97341.50;2093364;28;20417;-66
2022/07/12 13:49:31;;;;;;;43.77;26.33;;;;;;;32.38;25.71;97339.78;2088685;28;20445;-66
2022/07/12 13:50:33;;;;;;;2.90;1.23;;;;;;;32.54;24.93;97334.16;2084096;28;20454;-66
2022/07/12 13:51:34;;;;;;;1.20;0.50;;;;;;;32.77;24.91;97343.13;2082717;28;20479;-66
2022/07/12 13:52:36;;;;;;;1.93;0.80;;;;;;;31.90;25.16;97341.03;2092596;28;20483;-67
2022/07/12 13:53:37;;;;;;;1.30;0.50;;;;;;;32.25;25.26;97345.84;2089546;28;20429;-66
2022/07/12 14:10:38;;;;;;;1.00;0.50;;;;;;;31.91;24.61;97341.91;2091536;28;21062;-66
2022/07/12 14:11:39;;;;;;;1.00;0.50;;;;;;;31.97;24.66;97345.69;2084455;28;20437;-65
2022/07/12 14:12:42;;;;;;;1.10;0.50;;;;;;;32.38;23.81;97337.91;2079195;28;20431;-65
2022/07/12 14:13:43;;;;;;;1.00;0.50;;;;;;;31.36;24.83;97339.44;2079053;28;20426;-66
2022/07/12 14:16:21;;;;;;;1.60;1.00;;;;;;;28.56;28.38;97337.75;2061456;28;20440;-66
2022/07/12 14:17:23;;;;;;;1.20;0.50;;;;;;;28.00;29.41;97338.25;2054411;28;20907;-65
2022/07/12 14:18:24;;;;;;;1.10;0.50;;;;;;;29.93;27.47;97330.75;2053297;28;20436;-66
2022/07/12 14:19:26;;;;;;;1.67;0.60;;;;;;;29.78;27.13;97338.69;2053103;28;20564;-65
2022/07/12 14:20:28;;;;;;;1.00;0.50;;;;;;;29.62;27.74;97328.84;2044997;29;20965;-64
2022/07/12 14:21:33;;;;;;;1.00;0.50;;;;;;;30.95;26.02;97328.97;2042277;28;20454;-66
2022/07/12 14:22:35;;;;;;;1.10;0.50;;;;;;;31.74;25.08;97333.13;2061043;28;20448;-66
2022/07/12 14:23:36;;;;;;;1.80;0.70;;;;;;;31.89;24.75;97339.34;2061331;28;20439;-65
2022/07/12 14:24:38;;;;;;;4.23;0.70;;;;;;;32.18;24.22;97329.56;2058739;28;20436;-66
2022/07/12 14:25:39;;;;;;;1.00;0.50;;;;;;;32.22;23.99;97319.25;2061136;28;20432;-65
2022/07/12 14:26:41;;;;;;;1.20;0.60;;;;;;;32.54;23.70;97334.16;2060802;28;20994;-66
2022/07/12 14:27:43;;;;;;;1.00;0.50;;;;;;;32.69;23.15;97334.06;2061385;28;20429;-63
2022/07/12 14:28:45;;;;;;;1.00;0.50;;;;;;;32.46;23.47;97336.97;2053495;28;20960;-65
2022/07/12 14:29:47;;;;;;;1.77;0.57;;;;;;;32.74;23.18;97335.41;2043415;28;20456;-64
2022/07/12 14:30:49;;;;;;;0.90;0.50;;;;;;;33.09;22.63;97336.34;2053568;28;20524;-65
2022/07/12 14:31:51;;;;;;;1.20;0.50;;;;;;;32.80;22.71;97332.78;2055385;28;20463;-64
2022/07/12 14:32:54;;;;;;;1.00;0.50;;;;;;;31.18;24.54;97322.75;2055374;28;21085;-65
2022/07/12 14:33:56;;;;;;;1.13;0.70;;;;;;;32.10;23.75;97326.97;2061283;28;20440;-67
2022/07/12 14:34:58;;;;;;;1.67;0.50;;;;;;;32.60;23.50;97334.41;2053314;28;20512;-67
2022/07/12 14:35:59;;;;;;;0.93;0.50;;;;;;;32.57;24.00;97332.94;2052710;28;20429;-67
2022/07/12 14:37:01;;;;;;;1.20;0.50;;;;;;;32.60;23.16;97331.72;2052871;28;20476;-66
2022/07/12 14:38:03;;;;;;;3.10;0.50;;;;;;;32.90;23.04;97329.75;2051973;28;20552;-67
2022/07/12 14:39:05;;;;;;;1.00;0.60;;;;;;;32.76;22.92;97326.09;2061344;28;20631;-67
2022/07/12 14:40:07;;;;;;;1.57;0.50;;;;;;;32.88;23.07;97329.91;2061439;28;20452;-67
2022/07/12 14:41:10;;;;;;;1.20;0.60;;;;;;;33.03;23.24;97329.84;2061295;28;20479;-66
2022/07/12 14:42:11;;;;;;;0.90;0.50;;;;;;;33.14;23.05;97336.59;2052705;28;20461;-67
2022/07/12 14:43:13;;;;;;;0.90;0.50;;;;;;;32.95;22.66;97330.00;2053381;28;20441;-66
2022/07/12 14:44:15;;;;;;;2.30;0.50;;;;;;;32.80;22.60;97330.06;2061751;28;20806;-66
2022/07/12 14:45:16;;;;;;;1.10;0.60;;;;;;;32.91;22.49;97339.50;2061336;28;21017;-64
2022/07/12 14:46:18;;;;;;;0.97;0.53;;;;;;;32.48;23.28;97331.38;2061206;28;21058;-67
2022/07/12 14:47:20;;;;;;;0.90;0.50;;;;;;;30.42;25.28;97324.28;2052598;28;20465;-65
2022/07/12 14:48:22;;;;;;;0.90;0.50;;;;;;;31.48;24.23;97323.63;2053402;28;21082;-65
2022/07/12 14:49:24;;;;;;;1.10;0.50;;;;;;;32.31;23.45;97326.19;2061441;28;20440;-65
2022/07/12 14:50:26;;;;;;;0.90;0.50;;;;;;;32.84;22.87;97327.81;2061154;28;21075;-65
2022/07/12 14:51:28;;;;;;;1.10;0.50;;;;;;;31.98;23.95;97329.28;2072594;28;20466;-65
2022/07/12 14:52:29;;;;;;;0.97;0.50;;;;;;;32.50;22.80;97327.44;2077883;28;20458;-65
2022/07/12 14:53:31;;;;;;;1.10;0.63;;;;;;;32.63;22.32;97317.81;2078232;28;21423;-65
2022/07/12 14:54:33;;;;;;;1.00;0.50;;;;;;;33.03;21.94;97324.44;2078290;28;20429;-65
2022/07/12 14:55:35;;;;;;;1.00;0.57;;;;;;;32.21;22.54;97331.06;2078626;28;21134;-65
2022/07/12 14:56:36;;;;;;;0.90;0.50;;;;;;;32.48;21.97;97320.56;2081728;28;20430;-64
2022/07/12 14:57:39;;;;;;;1.17;0.63;;;;;;;31.47;22.94;97315.72;2084281;28;20836;-65
2022/07/12 14:58:40;;;;;;;1.20;0.60;;;;;;;30.81;24.53;97316.31;2078084;28;20948;-65
2022/07/12 14:59:42;;;;;;;2.70;0.60;;;;;;;31.56;24.38;97322.69;2077206;28;20430;-65
2022/07/12 15:00:43;;;;;;;0.90;0.50;;;;;;;32.20;23.34;97326.69;2078520;28;20415;-65
2022/07/12 15:01:45;;;;;;;1.37;0.50;;;;;;;32.33;23.13;97316.03;2077850;28;20581;-65
2022/07/12 15:02:47;;;;;;;1.40;0.50;;;;;;;32.40;23.54;97319.66;2078429;28;20852;-65
2022/07/12 15:03:53;;;;;;;1.30;0.63;;;;;;;32.55;22.67;97319.59;2078387;28;20434;-65
2022/07/12 15:04:55;;;;;;;1.30;0.50;;;;;;;32.70;22.35;97311.44;2078267;28;21003;-65
2022/07/12 15:05:56;;;;;;;1.00;0.50;;;;;;;32.24;23.19;97307.22;2078304;28;20434;-65
2022/07/12 15:06:58;;;;;;;0.90;0.50;;;;;;;32.39;22.69;97311.72;2077979;28;21128;-65
2022/07/12 15:07:59;;;;;;;1.00;0.50;;;;;;;32.47;22.65;97313.47;2078357;28;20429;-65
2022/07/12 15:09:01;;;;;;;1.07;0.60;;;;;;;32.67;22.54;97319.06;2077927;28;20434;-65
2022/07/12 15:10:02;;;;;;;1.30;0.53;;;;;;;32.64;22.88;97309.50;2078044;28;20465;-65
2022/07/12 15:11:04;;;;;;;1.37;0.50;;;;;;;32.45;23.42;97310.13;2076870;28;20545;-65
2022/07/12 15:12:06;;;;;;;1.67;0.60;;;;;;;32.38;23.67;97310.06;2077851;28;20568;-65
2022/07/12 15:13:07;;;;;;;0.90;0.50;;;;;;;32.56;23.80;97310.47;2078205;28;20437;-65
2022/07/12 15:14:09;;;;;;;0.90;0.50;;;;;;;32.67;23.40;97313.69;2078317;28;20422;-65
2022/07/12 15:15:11;;;;;;;1.10;0.50;;;;;;;32.59;23.95;97316.53;2077960;28;20435;-65
2022/07/12 15:16:13;;;;;;;1.17;0.50;;;;;;;31.89;24.30;97308.84;2077890;28;20429;-65
2022/07/12 15:17:16;;;;;;;0.90;0.50;;;;;;;31.36;24.89;97312.47;2077776;28;20462;-65
2022/07/12 15:18:18;;;;;;;2.30;0.50;;;;;;;31.48;24.61;97309.28;2078224;28;20858;-65
2022/07/12 15:19:19;;;;;;;0.90;0.60;;;;;;;31.54;25.03;97300.44;2078180;28;20426;-65
2022/07/12 15:20:21;;;;;;;1.57;0.50;;;;;;;31.97;24.92;97313.28;2077630;28;20898;-65
2022/07/12 15:21:24;;;;;;;1.00;0.50;;;;;;;31.93;24.67;97310.13;2076426;28;20546;-65
2022/07/12 15:22:25;;;;;;;0.97;0.60;;;;;;;32.12;24.62;97315.97;2071318;28;21012;-65
2022/07/12 15:23:27;;;;;;;0.90;0.50;;;;;;;32.27;24.05;97315.97;2072839;28;20427;-65
2022/07/12 15:24:30;;;;;;;0.90;0.43;;;;;;;32.35;24.58;97310.44;2072102;28;20439;-65
2022/07/12 15:25:32;;;;;;;1.00;0.50;;;;;;;32.47;24.02;97311.63;2072677;28;20454;-65
2022/07/12 15:26:33;;;;;;;1.40;0.70;;;;;;;32.56;24.03;97320.44;2072470;28;20676;-65
2022/07/12 15:27:34;;;;;;;1.53;0.50;;;;;;;32.53;23.79;97318.09;2072420;28;20443;-65
2022/07/12 15:28:53;;;;;;;1.20;0.50;;;;;;;32.30;23.62;97321.81;2072734;28;20424;-65